Time;durP1;ratioP1;P1;durP2;ratioP2;P2;SDS_P1;SDS_P2;PMS_P1;PMS_P2;Temp;Humidity;BMP_temperature;BMP_pressure;BME280_temperature;BME280_humidity;BME280_pressure;Samples;Min_cycle;Max_cycle;Signal;HPM_P1;HPM_P2
2021/12/25 00:02:07;;;;;;;15.27;13.90;;;;;;;;;;4948658;28;20451;-69
2021/12/25 00:04:33;;;;;;;16.02;14.73;;;;;;;;;;4952794;28;20521;-69
2021/12/25 00:06:58;;;;;;;16.45;15.05;;;;;;;;;;4952809;29;20290;-69
2021/12/25 00:09:25;;;;;;;15.60;14.18;;;;;;;;;;4951053;28;20098;-68
2021/12/25 00:11:51;;;;;;;18.02;16.25;;;;;;;;;;4954219;28;20114;-69
2021/12/25 00:14:16;;;;;;;16.63;15.13;;;;;;;;;;4953321;28;20059;-69
2021/12/25 00:16:42;;;;;;;17.05;14.95;;;;;;;;;;4957802;28;20078;-69
2021/12/25 00:19:08;;;;;;;15.80;14.25;;;;;;;;;;4948414;29;20032;-69
2021/12/25 00:21:34;;;;;;;17.00;15.32;;;;;;;;;;4949962;29;20031;-69
2021/12/25 00:23:59;;;;;;;16.70;15.10;;;;;;;;;;4955856;28;20085;-69
2021/12/25 00:26:40;;;;;;;17.35;15.75;;;;;;;;;;4956108;28;20357;-69
2021/12/25 00:32:11;;;;;;;16.73;15.25;;;;;;;;;;4967719;28;20039;-69
2021/12/25 00:34:32;;;;;;;16.35;14.73;;;;;;;;;;4961535;28;20636;-69
2021/12/25 00:36:58;;;;;;;16.35;14.70;;;;;;;;;;4958866;28;20118;-70
2021/12/25 00:39:28;;;;;;;16.08;14.77;;;;;;;;;;4953919;28;20042;-70
2021/12/25 00:41:54;;;;;;;15.40;14.00;;;;;;;;;;4953518;28;20038;-69
2021/12/25 00:44:19;;;;;;;15.57;14.23;;;;;;;;;;4960994;28;20130;-70
2021/12/25 00:46:45;;;;;;;15.07;13.77;;;;;;;;;;4959747;28;20097;-69
2021/12/25 00:49:11;;;;;;;15.25;14.05;;;;;;;;;;4952253;28;20042;-70
2021/12/25 00:51:36;;;;;;;15.95;14.55;;;;;;;;;;4954251;28;20110;-70
2021/12/25 00:54:03;;;;;;;15.32;13.93;;;;;;;;;;4959184;28;20568;-70
2021/12/25 00:56:28;;;;;;;15.95;14.63;;;;;;;;;;4956815;28;20046;-69
2021/12/25 00:58:54;;;;;;;16.42;14.65;;;;;;;;;;4969956;28;20098;-69
2021/12/25 01:01:19;;;;;;;15.68;14.32;;;;;;;;;;4955112;28;20146;-70
2021/12/25 01:03:47;;;;;;;16.08;14.52;;;;;;;;;;4958451;28;20507;-69
2021/12/25 01:06:13;;;;;;;15.48;14.15;;;;;;;;;;4951993;28;20543;-70
2021/12/25 01:08:39;;;;;;;15.80;14.20;;;;;;;;;;4952025;28;20438;-69
2021/12/25 01:11:06;;;;;;;16.33;14.85;;;;;;;;;;4957819;28;20430;-70
2021/12/25 01:13:38;;;;;;;16.88;15.32;;;;;;;;;;4957065;28;20426;-69
2021/12/25 01:37:46;;;;;;;18.30;16.70;;;;;;;;;;4948642;28;20054;-69
2021/12/25 01:49:32;;;;;;;18.02;16.42;;;;;;;;;;4967261;28;20107;-68
2021/12/25 01:51:59;;;;;;;18.80;16.92;;;;;;;;;;4967318;28;20077;-69
2021/12/25 01:54:25;;;;;;;18.33;16.58;;;;;;;;;;4967872;28;20050;-70
2021/12/25 01:56:51;;;;;;;18.35;16.63;;;;;;;;;;4966223;28;20038;-69
2021/12/25 01:59:16;;;;;;;18.48;16.77;;;;;;;;;;4964711;28;20035;-69
2021/12/25 02:01:42;;;;;;;17.75;16.02;;;;;;;;;;4966150;28;20405;-69
2021/12/25 02:04:08;;;;;;;17.73;16.13;;;;;;;;;;4965344;28;20039;-69
2021/12/25 02:06:34;;;;;;;17.38;15.82;;;;;;;;;;4968707;28;20075;-69
2021/12/25 02:09:00;;;;;;;18.45;16.67;;;;;;;;;;4966446;28;20042;-69
2021/12/25 02:11:25;;;;;;;20.63;18.52;;;;;;;;;;4962658;28;20053;-69
2021/12/25 02:13:51;;;;;;;19.80;18.00;;;;;;;;;;4981116;28;20061;-68
2021/12/25 02:16:22;;;;;;;19.70;17.80;;;;;;;;;;4964532;28;20039;-69
2021/12/25 02:21:35;;;;;;;18.23;16.60;;;;;;;;;;4966100;28;20166;-68
2021/12/25 02:24:04;;;;;;;18.38;16.63;;;;;;;;;;4968810;28;20463;-69
2021/12/25 02:26:31;;;;;;;18.38;16.70;;;;;;;;;;4980453;28;20035;-68
2021/12/25 02:28:57;;;;;;;19.73;17.75;;;;;;;;;;4964329;28;20565;-69
2021/12/25 02:31:23;;;;;;;20.05;18.13;;;;;;;;;;4978171;28;20113;-68
2021/12/25 02:33:49;;;;;;;20.15;17.45;;;;;;;;;;4963077;28;20045;-69
2021/12/25 02:36:15;;;;;;;18.92;17.17;;;;;;;;;;4966579;28;20042;-69
2021/12/25 02:38:43;;;;;;;19.35;17.45;;;;;;;;;;4963863;28;20118;-68
2021/12/25 02:41:10;;;;;;;19.33;17.42;;;;;;;;;;4967135;28;20030;-68
2021/12/25 02:43:37;;;;;;;19.92;17.92;;;;;;;;;;4967760;28;20042;-68
2021/12/25 02:46:04;;;;;;;19.92;18.10;;;;;;;;;;4965401;28;20045;-68
2021/12/25 02:48:33;;;;;;;19.60;17.58;;;;;;;;;;4981143;28;20030;-67
2021/12/25 02:51:00;;;;;;;;;;;;;;;;;;4963753;28;20039;-69
2021/12/25 02:53:25;;;;;;;19.80;17.80;;;;;;;;;;4961464;28;19918;-68
2021/12/25 02:55:51;;;;;;;26.70;20.23;;;;;;;;;;4965795;28;20041;-68
2021/12/25 02:58:19;;;;;;;21.13;18.85;;;;;;;;;;4982904;28;20293;-69
2021/12/25 03:01:00;;;;;;;20.60;18.48;;;;;;;;;;4965288;28;20422;-69
2021/12/25 03:03:26;;;;;;;20.60;18.60;;;;;;;;;;4967478;28;20389;-68
2021/12/25 03:05:53;;;;;;;60.45;19.60;;;;;;;;;;4965819;28;20035;-68
2021/12/25 03:08:20;;;;;;;163.48;22.40;;;;;;;;;;4966832;28;20046;-68
2021/12/25 03:10:56;;;;;;;177.50;21.13;;;;;;;;;;4965052;28;20039;-69
2021/12/25 03:13:35;;;;;;;64.75;19.60;;;;;;;;;;4964416;28;20439;-68
2021/12/25 03:16:07;;;;;;;30.63;19.33;;;;;;;;;;4979707;28;20086;-69
2021/12/25 03:18:41;;;;;;;50.92;20.75;;;;;;;;;;4967176;28;20037;-68
2021/12/25 03:21:09;;;;;;;20.05;17.95;;;;;;;;;;4966567;28;20452;-69
2021/12/25 03:23:36;;;;;;;20.95;18.73;;;;;;;;;;4965282;28;20421;-69
2021/12/25 03:26:04;;;;;;;22.45;18.58;;;;;;;;;;4966897;28;20747;-69
2021/12/25 03:28:32;;;;;;;20.23;18.17;;;;;;;;;;4964070;28;20061;-69
2021/12/25 03:31:03;;;;;;;20.83;18.80;;;;;;;;;;4959945;28;20042;-68
2021/12/25 03:33:30;;;;;;;21.35;18.38;;;;;;;;;;4964398;28;20464;-68
2021/12/25 03:35:55;;;;;;;24.52;19.95;;;;;;;;;;4961907;28;20045;-68
2021/12/25 03:38:22;;;;;;;22.05;18.52;;;;;;;;;;4967906;28;20038;-68
2021/12/25 03:40:50;;;;;;;22.73;18.75;;;;;;;;;;4965917;28;20423;-68
2021/12/25 03:43:18;;;;;;;25.00;20.38;;;;;;;;;;4967841;28;20129;-69
2021/12/25 03:45:44;;;;;;;44.15;20.83;;;;;;;;;;4961579;28;20045;-69
2021/12/25 03:48:45;;;;;;;71.45;21.83;;;;;;;;;;4961661;28;20035;-69
2021/12/25 03:59:05;;;;;;;28.00;20.00;;;;;;;;;;4981001;28;20038;-69
2021/12/25 04:04:16;;;;;;;23.15;20.00;;;;;;;;;;4964799;28;20081;-69
2021/12/25 04:06:54;;;;;;;22.67;19.70;;;;;;;;;;4960416;28;20053;-68
2021/12/25 04:09:24;;;;;;;24.38;19.52;;;;;;;;;;4965983;28;20050;-68
2021/12/25 04:11:51;;;;;;;24.50;19.80;;;;;;;;;;4967500;28;20057;-69
2021/12/25 04:14:18;;;;;;;27.17;21.38;;;;;;;;;;4962804;28;20039;-69
2021/12/25 04:16:43;;;;;;;23.85;20.10;;;;;;;;;;4964967;28;20039;-68
2021/12/25 04:19:09;;;;;;;20.45;18.25;;;;;;;;;;4968111;28;20041;-69
2021/12/25 04:21:36;;;;;;;23.95;19.45;;;;;;;;;;4967551;28;20169;-69
2021/12/25 04:24:03;;;;;;;25.52;20.38;;;;;;;;;;4965326;28;20070;-69
2021/12/25 04:26:29;;;;;;;22.92;19.80;;;;;;;;;;4968035;28;20050;-69
2021/12/25 04:29:15;;;;;;;48.90;21.00;;;;;;;;;;4966930;28;20296;-68
2021/12/25 05:04:43;;;;;;;27.08;20.40;;;;;;;;;;4968733;28;20051;-69
2021/12/25 05:07:29;;;;;;;35.67;20.63;;;;;;;;;;4967122;28;20133;-68
2021/12/25 05:09:57;;;;;;;219.50;23.80;;;;;;;;;;4963147;28;20565;-68
2021/12/25 05:12:23;;;;;;;196.43;20.88;;;;;;;;;;4963273;28;20479;-69
2021/12/25 05:14:49;;;;;;;75.13;19.88;;;;;;;;;;4965674;28;20482;-69
2021/12/25 05:17:14;;;;;;;83.22;20.80;;;;;;;;;;4956121;28;20038;-69
2021/12/25 05:19:41;;;;;;;62.88;20.15;;;;;;;;;;4968216;28;20043;-68
2021/12/25 05:22:07;;;;;;;43.10;22.08;;;;;;;;;;4965003;28;20473;-69
2021/12/25 05:24:34;;;;;;;29.70;22.00;;;;;;;;;;4968076;28;20126;-68
2021/12/25 05:27:00;;;;;;;25.08;20.95;;;;;;;;;;4965492;28;20039;-68
2021/12/25 05:29:26;;;;;;;36.10;21.90;;;;;;;;;;4958928;28;20387;-69
2021/12/25 05:31:53;;;;;;;25.23;21.60;;;;;;;;;;4965316;28;20088;-68
2021/12/25 05:34:37;;;;;;;28.98;22.73;;;;;;;;;;4965183;28;20458;-68
2021/12/25 05:37:14;;;;;;;27.27;21.27;;;;;;;;;;4963641;28;20039;-69
2021/12/25 05:39:42;;;;;;;27.65;21.30;;;;;;;;;;4966904;28;20039;-69
2021/12/25 05:42:08;;;;;;;26.42;20.52;;;;;;;;;;4966591;28;20441;-68
2021/12/25 05:44:34;;;;;;;24.38;19.88;;;;;;;;;;4963800;28;20644;-68
2021/12/25 05:47:16;;;;;;;24.15;20.85;;;;;;;;;;4967986;28;20042;-67
2021/12/25 05:49:46;;;;;;;28.60;21.08;;;;;;;;;;4966423;28;20041;-68
2021/12/25 05:52:30;;;;;;;21.50;19.30;;;;;;;;;;4967740;28;20041;-67
2021/12/25 05:55:12;;;;;;;20.88;18.70;;;;;;;;;;4964081;28;20031;-68
2021/12/25 05:57:58;;;;;;;22.67;18.05;;;;;;;;;;4964166;28;20086;-65
2021/12/25 06:00:50;;;;;;;20.67;18.48;;;;;;;;;;4965483;28;20342;-68
2021/12/25 06:03:16;;;;;;;20.42;18.23;;;;;;;;;;4964638;28;20039;-67
2021/12/25 06:05:42;;;;;;;20.58;18.42;;;;;;;;;;4962186;28;20065;-68
2021/12/25 06:08:09;;;;;;;23.20;19.90;;;;;;;;;;4965959;28;20027;-68
2021/12/25 06:10:35;;;;;;;21.98;19.65;;;;;;;;;;4962667;28;20109;-68
2021/12/25 06:13:01;;;;;;;24.48;19.98;;;;;;;;;;4967843;28;20031;-68
2021/12/25 06:15:34;;;;;;;27.50;21.38;;;;;;;;;;4967471;28;20046;-68
2021/12/25 06:18:10;;;;;;;30.13;21.73;;;;;;;;;;4967308;28;20038;-67
2021/12/25 06:20:42;;;;;;;28.63;21.70;;;;;;;;;;4966732;28;20485;-68
2021/12/25 06:23:46;;;;;;;26.60;21.52;;;;;;;;;;4903440;29;20037;-67
2021/12/25 06:26:30;;;;;;;26.42;20.67;;;;;;;;;;4902165;29;20044;-68
2021/12/25 06:29:19;;;;;;;28.25;21.75;;;;;;;;;;4905010;29;20056;-67
2021/12/25 06:32:04;;;;;;;24.55;21.15;;;;;;;;;;4905199;29;20070;-68
2021/12/25 06:35:08;;;;;;;24.05;20.23;;;;;;;;;;4907331;29;20090;-68
2021/12/25 06:37:46;;;;;;;28.00;21.58;;;;;;;;;;4901883;29;20043;-68
2021/12/25 06:40:26;;;;;;;24.45;20.38;;;;;;;;;;4893410;29;20051;-68
2021/12/25 06:42:52;;;;;;;22.83;19.70;;;;;;;;;;4906442;29;20043;-68
2021/12/25 06:45:17;;;;;;;23.45;19.63;;;;;;;;;;4899709;29;20135;-67
2021/12/25 06:47:43;;;;;;;22.95;20.55;;;;;;;;;;4916028;29;20071;-67
2021/12/25 06:50:17;;;;;;;28.17;24.35;;;;;;;;;;4921177;29;20071;-68
2021/12/25 06:53:06;;;;;;;30.25;22.23;;;;;;;;;;4888826;29;20249;-67
2021/12/25 06:55:52;;;;;;;30.73;22.35;;;;;;;;;;4966467;28;20129;-67
2021/12/25 06:58:37;;;;;;;34.50;24.20;;;;;;;;;;4962633;28;20041;-69
2021/12/25 07:01:03;;;;;;;35.20;24.88;;;;;;;;;;4962672;28;20038;-68
2021/12/25 07:03:28;;;;;;;45.75;27.77;;;;;;;;;;4966902;28;20390;-67
2021/12/25 07:06:13;;;;;;;42.35;27.83;;;;;;;;;;4962674;28;20402;-68
2021/12/25 07:09:07;;;;;;;44.47;26.58;;;;;;;;;;4963501;28;20089;-68
2021/12/25 07:11:51;;;;;;;44.00;27.77;;;;;;;;;;4968170;28;20038;-68
2021/12/25 07:14:33;;;;;;;41.80;26.67;;;;;;;;;;4959688;28;20031;-67
2021/12/25 07:17:24;;;;;;;41.63;25.63;;;;;;;;;;4954336;28;20050;-66
2021/12/25 07:20:08;;;;;;;47.05;26.55;;;;;;;;;;4964385;28;20501;-67
2021/12/25 07:22:53;;;;;;;43.90;27.20;;;;;;;;;;4965233;28;20035;-67
2021/12/25 07:25:37;;;;;;;43.50;27.77;;;;;;;;;;4978920;28;20409;-66
2021/12/25 07:28:17;;;;;;;46.55;27.40;;;;;;;;;;4964339;28;20102;-66
2021/12/25 07:30:43;;;;;;;40.17;25.63;;;;;;;;;;4967076;28;20031;-66
2021/12/25 07:33:08;;;;;;;35.95;23.40;;;;;;;;;;4963902;28;20038;-66
2021/12/25 07:35:34;;;;;;;35.13;22.70;;;;;;;;;;4959743;28;20070;-66
2021/12/25 07:37:59;;;;;;;35.67;23.45;;;;;;;;;;4962825;28;20043;-65
2021/12/25 07:40:25;;;;;;;39.33;27.02;;;;;;;;;;4959394;28;20146;-67
2021/12/25 07:42:51;;;;;;;35.25;25.40;;;;;;;;;;4964312;28;20031;-66
2021/12/25 07:45:47;;;;;;;34.33;23.65;;;;;;;;;;4965499;28;20049;-67
2021/12/25 07:48:14;;;;;;;37.33;25.90;;;;;;;;;;4966710;28;20057;-67
2021/12/25 07:50:40;;;;;;;42.22;25.52;;;;;;;;;;4963740;28;20085;-67
2021/12/25 07:53:07;;;;;;;33.88;26.80;;;;;;;;;;4964666;28;20035;-66
2021/12/25 07:55:33;;;;;;;33.75;25.05;;;;;;;;;;4970998;28;20121;-66
2021/12/25 07:58:00;;;;;;;34.60;24.67;;;;;;;;;;4963184;28;20503;-66
2021/12/25 08:00:25;;;;;;;30.40;21.08;;;;;;;;;;4967716;28;20053;-67
2021/12/25 08:02:52;;;;;;;25.02;20.98;;;;;;;;;;4970624;28;20063;-69
2021/12/25 08:05:18;;;;;;;25.42;20.85;;;;;;;;;;4966783;28;20457;-66
2021/12/25 08:07:44;;;;;;;27.50;21.95;;;;;;;;;;4970826;28;20051;-67
2021/12/25 08:10:13;;;;;;;30.38;22.25;;;;;;;;;;4971077;28;20035;-66
2021/12/25 08:12:42;;;;;;;31.83;21.98;;;;;;;;;;4971969;28;20502;-66
2021/12/25 08:15:08;;;;;;;30.73;21.77;;;;;;;;;;4968876;28;20680;-66
2021/12/25 08:17:33;;;;;;;30.13;23.10;;;;;;;;;;4967238;28;20394;-67
2021/12/25 08:20:19;;;;;;;31.33;21.52;;;;;;;;;;4964324;28;20097;-67
2021/12/25 08:23:03;;;;;;;28.17;22.33;;;;;;;;;;4968527;28;20122;-66
2021/12/25 08:25:47;;;;;;;31.90;22.17;;;;;;;;;;4969838;28;20027;-67
2021/12/25 08:28:32;;;;;;;33.22;23.27;;;;;;;;;;4969243;28;20031;-67
2021/12/25 08:31:16;;;;;;;29.17;22.27;;;;;;;;;;4967994;28;20035;-67
2021/12/25 08:33:48;;;;;;;31.63;22.52;;;;;;;;;;4966201;28;20070;-67
2021/12/25 08:36:49;;;;;;;33.67;22.92;;;;;;;;;;4966992;28;20490;-66
2021/12/25 08:39:14;;;;;;;34.00;22.65;;;;;;;;;;4967045;28;20089;-67
2021/12/25 08:41:40;;;;;;;34.58;23.08;;;;;;;;;;4964559;28;20539;-67
2021/12/25 08:44:19;;;;;;;34.80;22.52;;;;;;;;;;4966454;23;20402;-65
2021/12/25 08:46:55;;;;;;;32.55;22.27;;;;;;;;;;4955219;28;20051;-66
2021/12/25 08:49:29;;;;;;;31.33;21.45;;;;;;;;;;4955660;28;20030;-65
2021/12/25 08:51:57;;;;;;;31.77;22.13;;;;;;;;;;4951538;28;20066;-67
2021/12/25 08:54:23;;;;;;;30.63;21.83;;;;;;;;;;4957748;28;20039;-66
2021/12/25 08:56:48;;;;;;;25.50;20.92;;;;;;;;;;4951089;28;20106;-66
2021/12/25 08:59:14;;;;;;;26.88;21.13;;;;;;;;;;4957643;28;20118;-66
2021/12/25 09:01:40;;;;;;;33.38;22.88;;;;;;;;;;4956460;28;20360;-66
2021/12/25 09:04:06;;;;;;;28.75;20.52;;;;;;;;;;4951174;28;20063;-66
2021/12/25 09:06:33;;;;;;;28.65;21.55;;;;;;;;;;4951365;28;20202;-66
2021/12/25 09:08:59;;;;;;;27.80;21.60;;;;;;;;;;4950721;28;20355;-66
2021/12/25 09:11:25;;;;;;;25.15;21.48;;;;;;;;;;4952587;28;20130;-66
2021/12/25 09:13:51;;;;;;;30.83;21.55;;;;;;;;;;4951073;28;20035;-66
2021/12/25 09:16:16;;;;;;;35.15;23.40;;;;;;;;;;4951118;28;20046;-66
2021/12/25 09:18:42;;;;;;;38.00;23.85;;;;;;;;;;4949920;28;20031;-66
2021/12/25 09:21:08;;;;;;;30.83;22.80;;;;;;;;;;4959838;28;20037;-66
2021/12/25 09:23:34;;;;;;;25.65;21.23;;;;;;;;;;4949537;28;20410;-66
2021/12/25 09:26:00;;;;;;;29.92;21.40;;;;;;;;;;4947074;28;20036;-68
2021/12/25 09:28:25;;;;;;;27.88;21.83;;;;;;;;;;4953186;28;20043;-66
2021/12/25 09:30:51;;;;;;;35.85;24.98;;;;;;;;;;4952571;28;20076;-66
2021/12/25 09:33:17;;;;;;;24.67;20.88;;;;;;;;;;4957325;28;20522;-65
2021/12/25 09:35:43;;;;;;;23.55;20.38;;;;;;;;;;4961309;28;20481;-65
2021/12/25 09:38:09;;;;;;;26.15;21.05;;;;;;;;;;4958118;28;20113;-68
2021/12/25 09:40:35;;;;;;;28.08;21.10;;;;;;;;;;4955282;28;20134;-65
2021/12/25 09:43:01;;;;;;;26.55;19.92;;;;;;;;;;4948876;28;20039;-65
2021/12/25 09:45:26;;;;;;;31.27;21.52;;;;;;;;;;4956120;28;20032;-65
2021/12/25 09:47:52;;;;;;;25.13;20.77;;;;;;;;;;4957288;28;20445;-66
2021/12/25 09:50:19;;;;;;;25.48;20.40;;;;;;;;;;4948530;28;20047;-66
2021/12/25 09:52:45;;;;;;;26.60;21.00;;;;;;;;;;4949807;28;20058;-66
2021/12/25 09:55:13;;;;;;;27.63;20.83;;;;;;;;;;4948420;28;20047;-66
2021/12/25 09:57:39;;;;;;;28.10;19.88;;;;;;;;;;4946919;28;20039;-66
2021/12/25 10:00:12;;;;;;;24.42;19.73;;;;;;;;;;4950281;28;20407;-66
2021/12/25 10:02:50;;;;;;;26.58;20.00;;;;;;;;;;4953495;28;20054;-66
2021/12/25 10:05:33;;;;;;;20.52;18.48;;;;;;;;;;4948072;29;20050;-66
2021/12/25 10:08:11;;;;;;;26.48;20.75;;;;;;;;;;4948446;28;20483;-66
2021/12/25 10:10:47;;;;;;;39.05;25.73;;;;;;;;;;4946301;28;20071;-66
2021/12/25 10:13:21;;;;;;;27.98;20.58;;;;;;;;;;4946364;29;20035;-65
2021/12/25 10:15:48;;;;;;;25.50;20.23;;;;;;;;;;4945950;28;20114;-65
2021/12/25 10:18:14;;;;;;;26.60;20.27;;;;;;;;;;4951482;28;20043;-65
2021/12/25 10:20:39;;;;;;;27.48;19.27;;;;;;;;;;4948924;28;20510;-66
2021/12/25 10:23:13;;;;;;;31.92;23.40;;;;;;;;;;4948244;28;20035;-66
2021/12/25 10:25:51;;;;;;;24.58;19.00;;;;;;;;;;4935755;28;20043;-67
2021/12/25 10:28:28;;;;;;;23.30;19.58;;;;;;;;;;4945073;28;20039;-65
2021/12/25 10:31:00;;;;;;;22.80;19.58;;;;;;;;;;4946069;29;20598;-65
2021/12/25 10:33:34;;;;;;;24.27;18.35;;;;;;;;;;4947136;28;20726;-65
2021/12/25 10:36:05;;;;;;;25.75;19.83;;;;;;;;;;4944171;28;20631;-66
2021/12/25 10:38:31;;;;;;;22.88;19.08;;;;;;;;;;4946292;28;20108;-66
2021/12/25 10:41:09;;;;;;;22.73;18.40;;;;;;;;;;4948151;28;20043;-66
2021/12/25 10:43:40;;;;;;;23.35;17.73;;;;;;;;;;4946894;28;20179;-65
2021/12/25 10:46:06;;;;;;;24.20;17.88;;;;;;;;;;4954174;28;20086;-66
2021/12/25 10:48:32;;;;;;;22.17;17.45;;;;;;;;;;4957280;28;20490;-66
2021/12/25 10:50:58;;;;;;;24.58;17.63;;;;;;;;;;4952222;28;20070;-66
2021/12/25 10:53:51;;;;;;;24.08;18.15;;;;;;;;;;4953123;28;20042;-65
2021/12/25 10:56:19;;;;;;;29.70;24.27;;;;;;;;;;4953117;28;20046;-66
2021/12/25 10:58:44;;;;;;;26.33;23.48;;;;;;;;;;4953844;28;20497;-66
2021/12/25 11:01:13;;;;;;;24.30;21.33;;;;;;;;;;4948817;28;20041;-66
2021/12/25 11:03:41;;;;;;;23.77;20.10;;;;;;;;;;4950636;28;20027;-66
2021/12/25 11:06:13;;;;;;;20.73;18.65;;;;;;;;;;4955806;28;20398;-66
2021/12/25 11:08:40;;;;;;;20.33;17.42;;;;;;;;;;4955029;28;20030;-65
2021/12/25 11:11:17;;;;;;;18.75;16.33;;;;;;;;;;4949286;28;20038;-66
2021/12/25 11:13:48;;;;;;;19.17;17.38;;;;;;;;;;4951952;28;20047;-67
2021/12/25 11:16:22;;;;;;;18.13;16.35;;;;;;;;;;4955031;28;20049;-66
2021/12/25 11:19:10;;;;;;;18.35;16.48;;;;;;;;;;4950514;28;20035;-66
2021/12/25 11:21:56;;;;;;;18.58;16.75;;;;;;;;;;4941185;28;20050;-66
2021/12/25 11:24:37;;;;;;;18.30;16.38;;;;;;;;;;4945045;28;20124;-68
2021/12/25 11:27:06;;;;;;;18.52;16.17;;;;;;;;;;4947148;28;20066;-66
2021/12/25 11:29:34;;;;;;;20.88;17.52;;;;;;;;;;4948628;28;20039;-66
2021/12/25 11:32:00;;;;;;;18.42;16.52;;;;;;;;;;4948689;28;20070;-66
2021/12/25 11:34:28;;;;;;;16.70;15.10;;;;;;;;;;4950001;28;20193;-66
2021/12/25 11:36:55;;;;;;;16.02;14.63;;;;;;;;;;4952990;28;20098;-66
2021/12/25 11:39:23;;;;;;;21.27;16.85;;;;;;;;;;4950615;28;20446;-66
2021/12/25 11:41:52;;;;;;;24.02;19.58;;;;;;;;;;4957834;28;20031;-66
2021/12/25 11:44:29;;;;;;;19.63;17.63;;;;;;;;;;4951995;28;20100;-66
2021/12/25 11:46:55;;;;;;;18.55;16.80;;;;;;;;;;4949300;28;20081;-66
2021/12/25 11:49:21;;;;;;;17.63;15.93;;;;;;;;;;4950180;28;20039;-66
2021/12/25 11:51:47;;;;;;;17.58;15.85;;;;;;;;;;4948062;28;20058;-66
2021/12/25 11:55:19;;;;;;;20.63;16.85;;;;;;;;;;4959815;28;20042;-66
2021/12/25 11:59:51;;;;;;;26.87;21.17;;;;;;;;;;4950485;29;20051;-66
2021/12/25 12:02:43;;;;;;;23.67;21.05;;;;;;;;;;4951127;28;20424;-66
2021/12/25 12:05:29;;;;;;;22.30;19.60;;;;;;;;;;4949093;29;20530;-66
2021/12/25 12:08:10;;;;;;;31.42;20.02;;;;;;;;;;4950347;28;20062;-66
2021/12/25 12:11:01;;;;;;;22.30;20.02;;;;;;;;;;4950034;28;20631;-66
2021/12/25 12:13:46;;;;;;;19.50;17.60;;;;;;;;;;4951445;28;20537;-66
2021/12/25 12:16:38;;;;;;;16.83;15.05;;;;;;;;;;4925564;29;20052;-66
2021/12/25 12:19:33;;;;;;;15.50;13.98;;;;;;;;;;4970408;28;20039;-66
2021/12/25 12:22:14;;;;;;;15.13;13.80;;;;;;;;;;4948558;29;20068;-66
2021/12/25 12:25:15;;;;;;;15.05;13.68;;;;;;;;;;4951993;28;20042;-67
2021/12/25 12:27:48;;;;;;;13.25;12.25;;;;;;;;;;4951749;28;20047;-67
2021/12/25 12:30:38;;;;;;;24.98;17.20;;;;;;;;;;4949557;28;20043;-67
2021/12/25 12:33:23;;;;;;;80.50;40.33;;;;;;;;;;4950358;28;20549;-66
2021/12/25 12:35:51;;;;;;;58.47;23.05;;;;;;;;;;4951740;28;20052;-66
2021/12/25 12:38:39;;;;;;;39.38;22.38;;;;;;;;;;4953460;28;20039;-69
2021/12/25 12:41:42;;;;;;;103.43;38.57;;;;;;;;;;4947914;29;20085;-68
2021/12/25 12:44:13;;;;;;;32.80;23.20;;;;;;;;;;4908236;29;20419;-69
2021/12/25 12:47:03;;;;;;;35.65;24.27;;;;;;;;;;4905273;29;20044;-67
2021/12/25 12:49:46;;;;;;;36.38;23.05;;;;;;;;;;4909563;29;20051;-67
2021/12/25 12:52:37;;;;;;;25.67;20.48;;;;;;;;;;4912120;29;20048;-67
2021/12/25 12:55:08;;;;;;;26.83;21.63;;;;;;;;;;4903485;29;20047;-67
2021/12/25 12:57:45;;;;;;;27.92;21.48;;;;;;;;;;4904828;29;20503;-67
2021/12/25 13:00:27;;;;;;;26.33;21.08;;;;;;;;;;4909040;29;20636;-67
2021/12/25 13:02:55;;;;;;;25.08;22.33;;;;;;;;;;4907347;29;20036;-67
2021/12/25 13:05:25;;;;;;;23.15;20.63;;;;;;;;;;4908814;29;20047;-67
2021/12/25 13:07:53;;;;;;;27.80;23.00;;;;;;;;;;4912444;29;20518;-67
2021/12/25 13:10:32;;;;;;;31.88;23.48;;;;;;;;;;4905859;29;20067;-69
2021/12/25 13:13:11;;;;;;;26.55;23.23;;;;;;;;;;4904973;29;20420;-67
2021/12/25 13:15:37;;;;;;;42.40;32.55;;;;;;;;;;4914073;29;20175;-67
2021/12/25 13:18:06;;;;;;;27.75;24.65;;;;;;;;;;4917411;29;20047;-68
2021/12/25 13:20:44;;;;;;;26.52;23.08;;;;;;;;;;4932803;28;20142;-68
2021/12/25 13:23:14;;;;;;;23.15;20.75;;;;;;;;;;4955034;28;20061;-68
2021/12/25 13:26:07;;;;;;;31.02;23.55;;;;;;;;;;4956348;28;20049;-68
2021/12/25 13:28:37;;;;;;;23.23;20.80;;;;;;;;;;4947583;28;20050;-68
2021/12/25 13:31:06;;;;;;;25.73;23.13;;;;;;;;;;4947719;28;20039;-68
2021/12/25 13:33:38;;;;;;;28.08;22.02;;;;;;;;;;4948352;28;20045;-68
2021/12/25 13:36:10;;;;;;;26.45;21.80;;;;;;;;;;4949015;28;20070;-69
2021/12/25 13:39:06;;;;;;;26.33;21.20;;;;;;;;;;4949259;29;20498;-69
2021/12/25 13:41:45;;;;;;;29.02;21.85;;;;;;;;;;4951852;28;20062;-68
2021/12/25 13:44:35;;;;;;;24.65;20.80;;;;;;;;;;4946179;29;20452;-68
2021/12/25 13:47:01;;;;;;;27.85;22.30;;;;;;;;;;4948977;28;20039;-68
2021/12/25 13:49:46;;;;;;;28.80;21.90;;;;;;;;;;4950605;28;20073;-68
2021/12/25 13:52:33;;;;;;;25.45;22.60;;;;;;;;;;4948080;28;20134;-68
2021/12/25 13:55:06;;;;;;;23.80;21.27;;;;;;;;;;4951923;28;20039;-68
2021/12/25 13:57:34;;;;;;;27.10;21.42;;;;;;;;;;4949023;28;20074;-68
2021/12/25 14:00:06;;;;;;;27.45;22.70;;;;;;;;;;4946810;28;20058;-67
2021/12/25 14:02:41;;;;;;;31.75;24.35;;;;;;;;;;4944300;28;20043;-68
2021/12/25 14:05:07;;;;;;;;;;;;;;;;;;4950413;28;20546;-68
2021/12/25 14:07:33;;;;;;;33.65;26.75;;;;;;;;;;4949035;28;19915;-66
2021/12/25 14:10:04;;;;;;;58.17;34.88;;;;;;;;;;4954993;28;20452;-67
2021/12/25 14:12:30;;;;;;;28.08;24.52;;;;;;;;;;4950469;28;20451;-67
2021/12/25 14:14:57;;;;;;;25.77;20.77;;;;;;;;;;4950506;28;20039;-66
2021/12/25 14:17:25;;;;;;;26.67;20.52;;;;;;;;;;4950931;28;20046;-66
2021/12/25 14:20:09;;;;;;;23.77;19.48;;;;;;;;;;4951049;28;20482;-66
2021/12/25 14:22:35;;;;;;;19.38;17.55;;;;;;;;;;4950404;28;20050;-66
2021/12/25 14:25:01;;;;;;;18.05;16.27;;;;;;;;;;4947940;28;20035;-66
2021/12/25 14:27:27;;;;;;;17.85;16.25;;;;;;;;;;4958133;28;20545;-66
2021/12/25 14:30:08;;;;;;;18.33;16.65;;;;;;;;;;4949078;28;20394;-66
2021/12/25 14:32:34;;;;;;;19.15;17.25;;;;;;;;;;4950163;29;20446;-66
2021/12/25 14:35:00;;;;;;;18.60;16.45;;;;;;;;;;4947736;28;20490;-66
2021/12/25 14:37:37;;;;;;;18.83;16.92;;;;;;;;;;4950088;28;20082;-66
2021/12/25 14:40:19;;;;;;;20.88;18.77;;;;;;;;;;4944193;29;20360;-67
2021/12/25 14:42:48;;;;;;;20.40;18.33;;;;;;;;;;4946751;28;20059;-66
2021/12/25 14:45:15;;;;;;;23.42;18.30;;;;;;;;;;4951600;28;20105;-66
2021/12/25 14:47:58;;;;;;;22.20;19.88;;;;;;;;;;4952233;28;20516;-65
2021/12/25 14:50:28;;;;;;;23.40;20.85;;;;;;;;;;4949519;28;20034;-65
2021/12/25 14:53:15;;;;;;;27.83;23.05;;;;;;;;;;4950991;28;20039;-65
2021/12/25 14:55:46;;;;;;;29.65;22.80;;;;;;;;;;4951248;28;20035;-65
2021/12/25 14:58:22;;;;;;;29.23;22.80;;;;;;;;;;4950051;28;20282;-66
2021/12/25 15:01:14;;;;;;;30.67;21.88;;;;;;;;;;4948587;29;20062;-66
2021/12/25 15:03:42;;;;;;;28.75;21.88;;;;;;;;;;4952332;28;20035;-66
2021/12/25 15:06:22;;;;;;;31.02;21.48;;;;;;;;;;4951312;28;20078;-66
2021/12/25 15:09:14;;;;;;;24.90;21.60;;;;;;;;;;4943467;29;20035;-65
2021/12/25 15:11:43;;;;;;;30.08;22.83;;;;;;;;;;4952400;28;20098;-66
2021/12/25 15:14:13;;;;;;;28.38;22.95;;;;;;;;;;4952922;28;20037;-66
2021/12/25 15:16:48;;;;;;;29.20;23.20;;;;;;;;;;4949825;28;20501;-66
2021/12/25 15:19:23;;;;;;;36.20;23.13;;;;;;;;;;4949224;28;20035;-66
2021/12/25 15:21:50;;;;;;;33.63;23.27;;;;;;;;;;4954091;28;20031;-65
2021/12/25 15:24:19;;;;;;;30.73;22.20;;;;;;;;;;4964368;28;20098;-66
2021/12/25 15:26:53;;;;;;;30.23;22.40;;;;;;;;;;4946849;28;20081;-66
2021/12/25 15:29:20;;;;;;;29.65;21.77;;;;;;;;;;4947416;28;20669;-66
2021/12/25 15:31:57;;;;;;;28.20;22.13;;;;;;;;;;4948519;28;20565;-65
2021/12/25 15:34:22;;;;;;;32.03;22.42;;;;;;;;;;4956396;28;20061;-66
2021/12/25 15:36:48;;;;;;;28.50;22.85;;;;;;;;;;4947922;28;20475;-66
2021/12/25 15:39:24;;;;;;;38.38;23.80;;;;;;;;;;4949097;28;20494;-66
2021/12/25 15:41:51;;;;;;;28.17;23.08;;;;;;;;;;4948776;28;20038;-66
2021/12/25 15:44:20;;;;;;;35.65;23.60;;;;;;;;;;4949129;28;20118;-67
2021/12/25 15:46:47;;;;;;;33.83;23.97;;;;;;;;;;4947234;28;20110;-67
2021/12/25 15:49:13;;;;;;;41.13;23.75;;;;;;;;;;4949032;28;20035;-67
2021/12/25 15:51:40;;;;;;;35.05;22.95;;;;;;;;;;4948765;29;20042;-67
2021/12/25 15:54:06;;;;;;;32.03;24.08;;;;;;;;;;4948658;28;20115;-68
2021/12/25 15:56:32;;;;;;;31.45;23.48;;;;;;;;;;4948201;28;20046;-68
2021/12/25 15:58:58;;;;;;;34.53;24.40;;;;;;;;;;4948981;28;20031;-68
2021/12/25 16:01:24;;;;;;;40.45;25.10;;;;;;;;;;4948550;28;20110;-68
2021/12/25 16:03:50;;;;;;;39.50;26.40;;;;;;;;;;4948107;28;20080;-68
2021/12/25 16:06:16;;;;;;;46.15;28.60;;;;;;;;;;4950072;28;20122;-68
2021/12/25 16:08:42;;;;;;;49.17;30.05;;;;;;;;;;4948873;28;20059;-68
2021/12/25 16:11:08;;;;;;;56.10;32.97;;;;;;;;;;4949047;28;20446;-68